Time;durP1;ratioP1;P1;durP2;ratioP2;P2;SDS_P1;SDS_P2;PMS_P1;PMS_P2;Temp;Humidity;BMP_temperature;BMP_pressure;BME280_temperature;BME280_humidity;BME280_pressure;Samples;Min_cycle;Max_cycle;Signal;HPM_P1;HPM_P2
2021/08/19 00:00:23;;;;;;;13.15;10.40;;;;;;;;;;5019244;28;20511;-81
2021/08/19 00:02:49;;;;;;;11.90;10.43;;;;;;;;;;5012635;28;20134;-80
2021/08/19 00:05:14;;;;;;;11.23;10.10;;;;;;;;;;5028158;28;20040;-81
2021/08/19 00:07:40;;;;;;;12.55;10.43;;;;;;;;;;5014509;28;20443;-81
2021/08/19 00:10:05;;;;;;;13.73;10.60;;;;;;;;;;5021125;28;20037;-80
2021/08/19 00:12:31;;;;;;;11.35;10.30;;;;;;;;;;5019278;28;20037;-81
2021/08/19 00:14:57;;;;;;;11.63;10.48;;;;;;;;;;5033201;28;20164;-81
2021/08/19 00:17:22;;;;;;;12.23;11.05;;;;;;;;;;5032086;28;20030;-81
2021/08/19 00:19:48;;;;;;;12.43;10.70;;;;;;;;;;5041523;28;20029;-82
2021/08/19 00:22:13;;;;;;;12.50;10.35;;;;;;;;;;5052107;28;20055;-81
2021/08/19 00:24:39;;;;;;;14.60;11.45;;;;;;;;;;5052368;28;20215;-81
2021/08/19 00:27:04;;;;;;;14.93;12.00;;;;;;;;;;5021281;28;20065;-81
2021/08/19 00:29:30;;;;;;;14.35;11.55;;;;;;;;;;5031486;28;20132;-81
2021/08/19 00:31:55;;;;;;;14.90;12.30;;;;;;;;;;5026259;28;20025;-81
2021/08/19 00:34:21;;;;;;;12.88;11.57;;;;;;;;;;5031506;28;20116;-81
2021/08/19 00:36:46;;;;;;;14.65;11.18;;;;;;;;;;5032162;28;20025;-81
2021/08/19 00:39:12;;;;;;;13.82;10.90;;;;;;;;;;5040804;28;20037;-80
2021/08/19 00:41:39;;;;;;;14.15;11.10;;;;;;;;;;5032067;28;20073;-79
2021/08/19 00:44:06;;;;;;;13.32;11.13;;;;;;;;;;5031708;28;20472;-80
2021/08/19 00:46:32;;;;;;;13.82;11.23;;;;;;;;;;5031684;28;20061;-80
2021/08/19 00:49:08;;;;;;;14.70;12.68;;;;;;;;;;5015101;28;20030;-80
2021/08/19 00:51:38;;;;;;;12.50;11.20;;;;;;;;;;5029562;28;20072;-81
2021/08/19 00:54:06;;;;;;;16.48;11.73;;;;;;;;;;5031793;28;20132;-81
2021/08/19 00:56:32;;;;;;;16.20;12.05;;;;;;;;;;5032064;28;20116;-82
2021/08/19 00:58:57;;;;;;;16.40;11.57;;;;;;;;;;5014264;28;20107;-82
2021/08/19 01:01:23;;;;;;;14.07;12.57;;;;;;;;;;5016121;28;20511;-81
2021/08/19 01:03:49;;;;;;;14.15;12.65;;;;;;;;;;5011924;28;20022;-81
2021/08/19 01:06:14;;;;;;;14.88;13.27;;;;;;;;;;5027146;28;20164;-81
2021/08/19 01:08:40;;;;;;;14.23;12.48;;;;;;;;;;5031449;28;20104;-81
2021/08/19 01:11:06;;;;;;;16.95;12.68;;;;;;;;;;5031020;28;20404;-80
2021/08/19 01:13:33;;;;;;;15.50;13.13;;;;;;;;;;5023439;28;20391;-81
2021/08/19 01:15:59;;;;;;;14.95;13.00;;;;;;;;;;5031539;28;20472;-81
2021/08/19 01:18:24;;;;;;;14.95;13.10;;;;;;;;;;5025962;28;20032;-81
2021/08/19 01:20:50;;;;;;;17.85;12.65;;;;;;;;;;5031923;28;20084;-81
2021/08/19 01:23:15;;;;;;;16.23;13.18;;;;;;;;;;5031193;28;20033;-81
2021/08/19 01:25:41;;;;;;;16.98;13.05;;;;;;;;;;5031689;28;20030;-81
2021/08/19 01:28:06;;;;;;;16.58;13.00;;;;;;;;;;5031568;28;20033;-81
2021/08/19 01:30:32;;;;;;;14.25;12.55;;;;;;;;;;5030993;28;20116;-81
2021/08/19 01:32:57;;;;;;;14.93;13.43;;;;;;;;;;5031530;28;20029;-81
2021/08/19 01:35:23;;;;;;;16.45;13.13;;;;;;;;;;5014702;28;20021;-81
2021/08/19 01:37:49;;;;;;;15.38;13.20;;;;;;;;;;5030272;28;20147;-81
2021/08/19 01:40:15;;;;;;;14.93;13.32;;;;;;;;;;5023602;28;20033;-81
2021/08/19 01:42:46;;;;;;;16.98;15.15;;;;;;;;;;5035288;28;20090;-80
2021/08/19 01:45:13;;;;;;;16.20;13.82;;;;;;;;;;5035033;28;20029;-80
2021/08/19 01:47:40;;;;;;;16.30;14.60;;;;;;;;;;5016861;28;20053;-81
2021/08/19 01:50:05;;;;;;;16.58;14.30;;;;;;;;;;5034601;28;20531;-81
2021/08/19 01:52:31;;;;;;;17.55;15.07;;;;;;;;;;5033784;28;20123;-81
2021/08/19 01:54:56;;;;;;;23.60;16.25;;;;;;;;;;5016904;28;20025;-81
2021/08/19 01:57:23;;;;;;;18.92;15.93;;;;;;;;;;5034891;28;20025;-81
2021/08/19 01:59:49;;;;;;;26.23;18.92;;;;;;;;;;5030737;28;20037;-80
2021/08/19 02:02:15;;;;;;;21.55;16.92;;;;;;;;;;5034768;28;20041;-81
2021/08/19 02:04:40;;;;;;;23.60;18.67;;;;;;;;;;5016479;28;20400;-81
2021/08/19 02:07:06;;;;;;;22.63;18.67;;;;;;;;;;5003002;28;20079;-81
2021/08/19 02:09:31;;;;;;;21.70;18.10;;;;;;;;;;5034341;28;20464;-80
2021/08/19 02:11:57;;;;;;;26.30;20.00;;;;;;;;;;5033974;28;20036;-80
2021/08/19 02:14:22;;;;;;;25.90;19.48;;;;;;;;;;5034740;28;20484;-80
2021/08/19 02:16:48;;;;;;;24.00;19.45;;;;;;;;;;5034381;28;20057;-80
2021/08/19 02:19:13;;;;;;;23.75;18.13;;;;;;;;;;5017041;28;20109;-80
2021/08/19 02:21:39;;;;;;;22.25;18.48;;;;;;;;;;5025490;28;20045;-79
2021/08/19 02:24:05;;;;;;;25.10;17.90;;;;;;;;;;5034210;28;20056;-79
2021/08/19 02:26:30;;;;;;;23.92;17.83;;;;;;;;;;5034203;28;20609;-79
2021/08/19 02:28:56;;;;;;;21.95;17.02;;;;;;;;;;5034109;28;20032;-82
2021/08/19 02:31:21;;;;;;;24.13;17.23;;;;;;;;;;5033679;28;20121;-82
2021/08/19 02:33:47;;;;;;;21.80;16.73;;;;;;;;;;5032566;28;20073;-82
2021/08/19 02:36:12;;;;;;;21.65;18.25;;;;;;;;;;5033640;28;20033;-82
2021/08/19 02:38:38;;;;;;;19.42;17.27;;;;;;;;;;5015821;28;20492;-80
2021/08/19 02:41:04;;;;;;;20.23;16.77;;;;;;;;;;5032873;28;20041;-80
2021/08/19 02:43:29;;;;;;;23.65;15.77;;;;;;;;;;5033868;28;20515;-81
2021/08/19 02:45:55;;;;;;;21.13;16.13;;;;;;;;;;5017919;28;20061;-80
2021/08/19 02:48:21;;;;;;;20.85;15.63;;;;;;;;;;5013476;28;20026;-80
2021/08/19 02:50:46;;;;;;;21.52;16.15;;;;;;;;;;5027673;28;20506;-83
2021/08/19 02:53:12;;;;;;;23.20;15.73;;;;;;;;;;5031063;28;20037;-82
2021/08/19 02:55:37;;;;;;;17.40;14.27;;;;;;;;;;5033393;28;20051;-80
2021/08/19 02:58:03;;;;;;;19.70;15.23;;;;;;;;;;5032911;28;20029;-80
2021/08/19 03:00:28;;;;;;;19.17;14.32;;;;;;;;;;5032623;28;20037;-80
2021/08/19 03:02:54;;;;;;;19.67;14.82;;;;;;;;;;5014308;28;20087;-81
2021/08/19 03:05:20;;;;;;;19.35;14.65;;;;;;;;;;5048036;28;20029;-81
2021/08/19 03:07:45;;;;;;;17.27;14.73;;;;;;;;;;5031294;28;20029;-81
2021/08/19 03:10:11;;;;;;;23.70;15.50;;;;;;;;;;5033079;28;20057;-81
2021/08/19 03:12:37;;;;;;;19.52;15.05;;;;;;;;;;5031709;28;20033;-79
2021/08/19 03:15:03;;;;;;;18.48;15.05;;;;;;;;;;5022445;28;20127;-79
2021/08/19 03:17:29;;;;;;;17.38;14.05;;;;;;;;;;5012684;28;20080;-80
2021/08/19 03:19:55;;;;;;;19.60;14.48;;;;;;;;;;5012385;28;20060;-80
2021/08/19 03:22:21;;;;;;;16.92;13.23;;;;;;;;;;5016005;28;20072;-82
2021/08/19 03:24:46;;;;;;;19.73;14.43;;;;;;;;;;5031340;28;20033;-80
2021/08/19 03:27:13;;;;;;;18.98;14.57;;;;;;;;;;5031937;28;20029;-80
2021/08/19 03:29:39;;;;;;;14.25;12.75;;;;;;;;;;5031527;28;20030;-79
2021/08/19 03:32:05;;;;;;;17.88;13.25;;;;;;;;;;5031467;28;20056;-79
2021/08/19 03:34:30;;;;;;;18.17;12.88;;;;;;;;;;5031955;28;20043;-81
2021/08/19 03:36:56;;;;;;;17.58;13.15;;;;;;;;;;5032173;28;20048;-80
2021/08/19 03:39:23;;;;;;;15.10;13.45;;;;;;;;;;5031951;28;20033;-79
2021/08/19 03:41:49;;;;;;;17.00;12.70;;;;;;;;;;5013165;28;20045;-79
2021/08/19 03:44:15;;;;;;;17.20;13.80;;;;;;;;;;5031975;28;20392;-80
2021/08/19 03:46:41;;;;;;;13.68;12.20;;;;;;;;;;4990964;28;1612649;-80
2021/08/19 03:49:08;;;;;;;21.48;13.57;;;;;;;;;;5032808;28;20194;-80
2021/08/19 03:51:33;;;;;;;15.90;12.30;;;;;;;;;;5032222;28;20032;-80
2021/08/19 03:53:59;;;;;;;18.90;12.50;;;;;;;;;;5031994;28;20030;-81
2021/08/19 03:56:28;;;;;;;15.70;12.10;;;;;;;;;;5021017;28;20034;-82
2021/08/19 03:58:54;;;;;;;14.45;12.98;;;;;;;;;;5030641;28;20473;-82
2021/08/19 04:01:19;;;;;;;15.43;12.82;;;;;;;;;;5052584;28;20041;-82
2021/08/19 04:03:46;;;;;;;15.32;13.80;;;;;;;;;;5031832;28;20033;-82
2021/08/19 04:06:12;;;;;;;18.05;13.75;;;;;;;;;;5032415;28;20044;-81
2021/08/19 04:08:37;;;;;;;14.90;12.98;;;;;;;;;;5030446;28;20025;-81
2021/08/19 04:11:03;;;;;;;16.10;13.57;;;;;;;;;;5012357;28;20070;-81
2021/08/19 04:13:28;;;;;;;16.85;13.00;;;;;;;;;;5013133;28;20491;-80
2021/08/19 04:15:54;;;;;;;15.68;13.43;;;;;;;;;;5029883;28;20451;-80
2021/08/19 04:18:19;;;;;;;14.82;13.23;;;;;;;;;;5031805;28;20393;-82
2021/08/19 04:20:45;;;;;;;16.63;13.07;;;;;;;;;;5031841;28;20124;-83
2021/08/19 04:23:10;;;;;;;20.88;14.35;;;;;;;;;;5031796;28;20053;-83
2021/08/19 04:25:36;;;;;;;18.80;13.63;;;;;;;;;;5030837;28;20037;-82
2021/08/19 04:28:02;;;;;;;15.35;12.98;;;;;;;;;;5014452;28;20060;-82
2021/08/19 04:30:27;;;;;;;15.57;12.80;;;;;;;;;;5032274;28;20029;-83
2021/08/19 04:32:53;;;;;;;15.52;13.10;;;;;;;;;;5013908;28;20396;-83
2021/08/19 04:35:18;;;;;;;14.80;13.15;;;;;;;;;;5031008;28;20400;-81
2021/08/19 04:37:44;;;;;;;17.38;13.32;;;;;;;;;;5012141;28;20061;-81
2021/08/19 04:40:09;;;;;;;17.13;13.20;;;;;;;;;;5012229;28;20026;-81
2021/08/19 04:42:35;;;;;;;24.40;13.90;;;;;;;;;;5011982;28;20069;-82
2021/08/19 04:45:01;;;;;;;18.25;14.57;;;;;;;;;;5008117;28;20400;-83
2021/08/19 04:47:26;;;;;;;23.75;16.02;;;;;;;;;;5031341;28;20053;-83
2021/08/19 04:49:52;;;;;;;16.27;14.57;;;;;;;;;;5031674;28;20064;-81
2021/08/19 04:52:17;;;;;;;18.60;14.10;;;;;;;;;;5037448;28;20489;-82
2021/08/19 04:54:43;;;;;;;16.48;14.75;;;;;;;;;;5026390;28;20034;-81
2021/08/19 04:57:08;;;;;;;17.08;14.02;;;;;;;;;;5046621;28;20052;-81
2021/08/19 04:59:34;;;;;;;17.75;14.52;;;;;;;;;;5031844;28;20388;-82
2021/08/19 05:02:01;;;;;;;14.15;12.30;;;;;;;;;;5031198;28;20052;-81
2021/08/19 05:04:26;;;;;;;15.05;13.10;;;;;;;;;;5017990;28;20034;-81
2021/08/19 05:06:52;;;;;;;17.30;13.55;;;;;;;;;;5027310;28;20404;-81
2021/08/19 05:09:17;;;;;;;14.60;13.10;;;;;;;;;;5029790;28;20032;-81
2021/08/19 05:11:43;;;;;;;16.00;13.13;;;;;;;;;;5012506;28;20412;-80
2021/08/19 05:14:09;;;;;;;21.40;14.30;;;;;;;;;;5030041;28;20491;-82
2021/08/19 05:16:34;;;;;;;14.52;13.13;;;;;;;;;;5033959;28;20037;-81
2021/08/19 05:19:00;;;;;;;18.45;13.35;;;;;;;;;;5034803;28;20033;-82
2021/08/19 05:21:25;;;;;;;18.60;13.90;;;;;;;;;;5035523;28;20041;-82
2021/08/19 05:23:52;;;;;;;15.15;13.55;;;;;;;;;;5035017;28;20116;-81
2021/08/19 05:26:18;;;;;;;18.50;14.48;;;;;;;;;;5035203;28;20064;-82
2021/08/19 05:28:44;;;;;;;16.08;13.75;;;;;;;;;;5029524;28;20396;-81
2021/08/19 05:31:10;;;;;;;17.75;13.90;;;;;;;;;;5033390;28;20029;-81
2021/08/19 05:33:36;;;;;;;16.50;13.95;;;;;;;;;;5034194;28;20033;-82
2021/08/19 05:36:01;;;;;;;19.60;14.25;;;;;;;;;;5026866;28;20029;-80
2021/08/19 05:38:27;;;;;;;16.70;14.93;;;;;;;;;;5015394;28;20029;-81
2021/08/19 05:40:52;;;;;;;17.23;14.93;;;;;;;;;;5014527;28;20040;-82
2021/08/19 05:43:19;;;;;;;20.08;15.52;;;;;;;;;;5031527;28;20033;-82
2021/08/19 05:45:45;;;;;;;17.63;15.05;;;;;;;;;;5034803;28;20516;-82
2021/08/19 05:48:10;;;;;;;21.38;15.85;;;;;;;;;;5035513;28;20064;-82
2021/08/19 05:50:36;;;;;;;16.95;14.63;;;;;;;;;;5034523;28;20036;-82
2021/08/19 05:53:01;;;;;;;17.80;15.57;;;;;;;;;;5049554;28;20396;-82
2021/08/19 05:55:27;;;;;;;17.70;15.43;;;;;;;;;;5034336;28;20155;-83
2021/08/19 05:57:52;;;;;;;21.88;15.45;;;;;;;;;;5033513;28;20564;-82
2021/08/19 06:00:22;;;;;;;18.60;15.55;;;;;;;;;;5024686;28;20489;-82
2021/08/19 06:02:51;;;;;;;16.83;14.27;;;;;;;;;;5002434;28;20080;-83
2021/08/19 06:05:16;;;;;;;19.33;14.27;;;;;;;;;;5035104;28;20022;-83
2021/08/19 06:07:42;;;;;;;20.33;14.00;;;;;;;;;;5013717;28;20026;-82
2021/08/19 06:10:08;;;;;;;17.10;14.25;;;;;;;;;;5014373;28;20033;-83
2021/08/19 06:12:35;;;;;;;17.15;14.82;;;;;;;;;;5015246;28;20044;-83
2021/08/19 06:15:00;;;;;;;14.63;13.05;;;;;;;;;;5016723;28;20046;-83
2021/08/19 06:17:26;;;;;;;19.55;14.82;;;;;;;;;;5022775;28;20034;-84
2021/08/19 06:19:51;;;;;;;18.77;14.70;;;;;;;;;;5032982;28;20041;-82
2021/08/19 06:22:16;;;;;;;16.70;14.75;;;;;;;;;;5022818;28;20196;-82
2021/08/19 06:24:42;;;;;;;18.60;15.02;;;;;;;;;;5029857;28;20155;-81
2021/08/19 06:27:08;;;;;;;20.20;15.05;;;;;;;;;;5032541;28;20041;-82
2021/08/19 06:29:33;;;;;;;16.33;14.73;;;;;;;;;;5031483;28;20067;-80
2021/08/19 06:31:59;;;;;;;17.13;14.32;;;;;;;;;;5011074;28;20025;-80
2021/08/19 06:34:25;;;;;;;18.92;14.45;;;;;;;;;;5024911;28;20103;-81
2021/08/19 06:36:50;;;;;;;19.88;14.77;;;;;;;;;;5013861;28;20489;-82
2021/08/19 06:39:17;;;;;;;23.35;13.85;;;;;;;;;;5015139;28;20041;-82
2021/08/19 06:41:43;;;;;;;22.45;15.10;;;;;;;;;;5025131;28;20123;-81
2021/08/19 06:44:09;;;;;;;17.20;14.98;;;;;;;;;;5029922;28;20124;-81
2021/08/19 06:46:35;;;;;;;24.23;16.13;;;;;;;;;;5026974;28;20103;-82
2021/08/19 06:49:02;;;;;;;25.42;15.32;;;;;;;;;;5026423;28;20030;-81
2021/08/19 06:51:30;;;;;;;25.20;15.63;;;;;;;;;;5033111;28;20452;-81
2021/08/19 06:53:55;;;;;;;26.90;15.95;;;;;;;;;;5034016;28;20553;-80
2021/08/19 06:56:21;;;;;;;23.35;15.63;;;;;;;;;;5033679;28;20037;-81
2021/08/19 06:58:47;;;;;;;23.27;15.68;;;;;;;;;;5033074;28;20026;-81
2021/08/19 07:01:12;;;;;;;20.98;14.57;;;;;;;;;;5022357;28;20412;-82
2021/08/19 07:03:38;;;;;;;26.30;15.93;;;;;;;;;;5033524;28;20021;-82
2021/08/19 07:06:03;;;;;;;24.70;15.13;;;;;;;;;;5032929;28;20033;-82
2021/08/19 07:08:29;;;;;;;24.92;15.32;;;;;;;;;;5048121;28;20452;-82
2021/08/19 07:10:54;;;;;;;26.20;16.67;;;;;;;;;;5032320;28;20017;-82
2021/08/19 07:13:20;;;;;;;26.63;16.63;;;;;;;;;;5032494;28;20025;-82
2021/08/19 07:15:45;;;;;;;30.15;17.88;;;;;;;;;;5025575;28;20515;-82
2021/08/19 07:18:37;;;;;;;29.02;16.52;;;;;;;;;;5029096;28;20117;-82
2021/08/19 07:21:05;;;;;;;32.92;19.15;;;;;;;;;;5031755;28;20183;-81
2021/08/19 07:23:32;;;;;;;34.55;18.00;;;;;;;;;;5032874;28;20091;-82
2021/08/19 07:25:57;;;;;;;28.38;17.75;;;;;;;;;;5027575;28;20033;-82
2021/08/19 07:28:23;;;;;;;25.73;16.52;;;;;;;;;;5013073;28;20400;-83
2021/08/19 07:30:49;;;;;;;27.58;17.25;;;;;;;;;;5032491;28;20474;-82
2021/08/19 07:33:17;;;;;;;20.88;15.88;;;;;;;;;;5032285;28;20116;-83
2021/08/19 07:35:43;;;;;;;23.23;16.20;;;;;;;;;;5031545;28;20033;-82
2021/08/19 07:38:11;;;;;;;20.30;15.95;;;;;;;;;;5031534;28;20082;-83
2021/08/19 07:40:36;;;;;;;21.25;15.35;;;;;;;;;;5013524;28;20033;-83
2021/08/19 07:43:02;;;;;;;24.70;16.60;;;;;;;;;;5032453;28;20084;-82
2021/08/19 07:45:30;;;;;;;23.55;16.35;;;;;;;;;;5039015;28;20055;-83
2021/08/19 07:47:55;;;;;;;24.65;16.55;;;;;;;;;;5052101;28;20049;-82
2021/08/19 07:50:21;;;;;;;23.52;15.50;;;;;;;;;;5052558;28;20025;-82
2021/08/19 07:52:46;;;;;;;25.30;16.70;;;;;;;;;;5052577;28;20032;-82
2021/08/19 07:55:12;;;;;;;27.33;16.23;;;;;;;;;;5034908;28;20075;-82
2021/08/19 07:57:45;;;;;;;25.67;16.88;;;;;;;;;;5037823;28;20126;-84
2021/08/19 08:05:54;;;;;;;25.73;16.73;;;;;;;;;;5044901;23;20049;-83
2021/08/19 08:08:52;;;;;;;28.88;17.63;;;;;;;;;;5014248;28;20551;-80
2021/08/19 08:16:49;;;;;;;29.27;18.63;;;;;;;;;;5029591;23;20081;-82
2021/08/19 08:19:16;;;;;;;34.25;19.05;;;;;;;;;;4992420;28;20077;-81
2021/08/19 08:21:42;;;;;;;34.58;19.95;;;;;;;;;;4967223;28;20073;-82
2021/08/19 08:24:08;;;;;;;30.20;18.63;;;;;;;;;;4955671;28;20050;-82
2021/08/19 08:26:33;;;;;;;38.00;17.52;;;;;;;;;;4992429;28;20038;-80
2021/08/19 08:28:59;;;;;;;30.73;15.77;;;;;;;;;;4956913;28;20042;-82
2021/08/19 08:31:25;;;;;;;22.92;15.38;;;;;;;;;;4973237;28;20026;-82
2021/08/19 08:33:51;;;;;;;27.23;15.05;;;;;;;;;;4984933;28;20374;-82
2021/08/19 08:36:17;;;;;;;27.75;15.80;;;;;;;;;;4991698;28;20038;-82
2021/08/19 08:38:44;;;;;;;30.40;17.02;;;;;;;;;;4990774;28;20076;-82
2021/08/19 08:41:10;;;;;;;25.17;16.38;;;;;;;;;;4991078;28;20539;-81
2021/08/19 08:43:36;;;;;;;27.40;17.20;;;;;;;;;;4991742;28;20034;-82
2021/08/19 08:46:01;;;;;;;31.80;17.17;;;;;;;;;;5001212;28;20091;-81
2021/08/19 08:48:27;;;;;;;25.80;15.88;;;;;;;;;;5008110;28;20026;-82
2021/08/19 08:50:54;;;;;;;33.80;16.85;;;;;;;;;;4977865;28;20034;-82
2021/08/19 08:53:20;;;;;;;29.17;14.20;;;;;;;;;;4977019;28;20126;-82
2021/08/19 08:55:46;;;;;;;22.88;13.75;;;;;;;;;;4982412;28;20041;-82
2021/08/19 08:58:12;;;;;;;27.20;13.68;;;;;;;;;;4996339;28;20034;-82
2021/08/19 09:00:41;;;;;;;20.95;13.57;;;;;;;;;;4996226;28;20511;-82
2021/08/19 09:03:11;;;;;;;25.75;14.25;;;;;;;;;;4996201;28;20125;-82
2021/08/19 09:05:42;;;;;;;19.40;13.35;;;;;;;;;;5015092;28;20445;-81
2021/08/19 09:08:15;;;;;;;21.40;13.25;;;;;;;;;;5015295;28;20025;-81
2021/08/19 09:10:41;;;;;;;25.17;12.85;;;;;;;;;;5015768;28;20034;-83
2021/08/19 09:13:14;;;;;;;21.38;13.00;;;;;;;;;;5015583;28;20041;-81
2021/08/19 09:15:40;;;;;;;25.00;13.43;;;;;;;;;;4985831;28;20425;-83
2021/08/19 09:18:05;;;;;;;29.55;14.10;;;;;;;;;;5013590;28;20030;-82
2021/08/19 09:20:35;;;;;;;22.35;12.02;;;;;;;;;;5014911;28;20129;-81
2021/08/19 09:23:02;;;;;;;23.17;11.35;;;;;;;;;;5003811;28;20061;-81
2021/08/19 09:25:29;;;;;;;24.23;10.88;;;;;;;;;;5015295;28;20030;-82
2021/08/19 09:28:14;;;;;;;18.95;11.55;;;;;;;;;;5013711;28;20026;-80
2021/08/19 09:30:40;;;;;;;22.50;10.75;;;;;;;;;;5014970;28;20098;-81
2021/08/19 09:33:06;;;;;;;20.50;11.30;;;;;;;;;;5015618;28;20116;-80
2021/08/19 09:35:32;;;;;;;15.82;9.63;;;;;;;;;;5015373;28;20411;-80
2021/08/19 09:38:04;;;;;;;19.85;9.30;;;;;;;;;;5015033;28;20036;-81
2021/08/19 09:40:30;;;;;;;16.00;8.35;;;;;;;;;;5015750;28;20496;-81
2021/08/19 09:42:56;;;;;;;28.75;17.33;;;;;;;;;;4988048;28;20057;-80
2021/08/19 09:45:24;;;;;;;17.23;9.60;;;;;;;;;;4996968;28;20022;-82
2021/08/19 09:47:50;;;;;;;16.60;8.50;;;;;;;;;;5011753;28;20029;-81
2021/08/19 09:50:16;;;;;;;17.92;9.75;;;;;;;;;;4996746;28;20112;-80
2021/08/19 09:52:42;;;;;;;16.25;8.05;;;;;;;;;;5014165;28;20266;-80
2021/08/19 09:55:27;;;;;;;15.60;8.52;;;;;;;;;;5014680;28;20030;-81
2021/08/19 09:57:54;;;;;;;14.88;7.47;;;;;;;;;;4999665;28;20038;-81
2021/08/19 10:00:25;;;;;;;11.98;7.40;;;;;;;;;;5014351;28;20417;-81
2021/08/19 10:02:51;;;;;;;14.43;7.82;;;;;;;;;;5012897;28;20065;-81
2021/08/19 10:05:18;;;;;;;18.73;8.95;;;;;;;;;;5014235;28;20054;-80
2021/08/19 10:07:43;;;;;;;15.50;8.20;;;;;;;;;;5014522;28;20029;-81
2021/08/19 10:10:09;;;;;;;12.25;7.50;;;;;;;;;;5014550;28;20502;-81
2021/08/19 10:12:38;;;;;;;16.48;7.63;;;;;;;;;;5013541;28;20025;-80
2021/08/19 10:15:04;;;;;;;10.85;6.70;;;;;;;;;;5009703;28;20053;-81
2021/08/19 10:17:29;;;;;;;14.55;7.45;;;;;;;;;;5010427;28;20493;-81
2021/08/19 10:19:55;;;;;;;8.60;6.25;;;;;;;;;;4988710;28;20029;-80
2021/08/19 10:22:22;;;;;;;25.08;8.57;;;;;;;;;;5013340;28;20133;-81
2021/08/19 10:24:57;;;;;;;20.13;7.43;;;;;;;;;;5014357;28;20061;-81
2021/08/19 10:27:23;;;;;;;12.27;6.30;;;;;;;;;;5014920;28;20037;-81
2021/08/19 10:29:50;;;;;;;13.23;6.68;;;;;;;;;;5014424;28;20113;-82
2021/08/19 10:32:24;;;;;;;11.60;6.78;;;;;;;;;;5013042;28;20034;-81
2021/08/19 10:34:55;;;;;;;12.77;6.78;;;;;;;;;;5010261;28;20026;-82
2021/08/19 10:37:21;;;;;;;19.63;7.10;;;;;;;;;;4996815;28;20025;-82
2021/08/19 10:39:46;;;;;;;14.10;6.57;;;;;;;;;;4990769;28;20120;-82
2021/08/19 10:42:27;;;;;;;14.13;7.53;;;;;;;;;;5015991;28;20038;-80
2021/08/19 10:44:52;;;;;;;15.90;7.38;;;;;;;;;;5014538;28;20465;-79
2021/08/19 10:47:38;;;;;;;13.80;6.70;;;;;;;;;;5002288;28;20030;-81
2021/08/19 10:50:39;;;;;;;14.32;6.68;;;;;;;;;;5003238;28;20034;-82
2021/08/19 10:53:15;;;;;;;24.15;7.40;;;;;;;;;;4935154;29;20049;-82
2021/08/19 10:55:52;;;;;;;15.77;7.25;;;;;;;;;;4985375;28;20053;-80
2021/08/19 11:08:03;;;;;;;13.95;6.72;;;;;;;;;;5037863;23;20547;-82
2021/08/19 11:10:32;;;;;;;12.48;7.60;;;;;;;;;;5036591;23;20083;-80
2021/08/19 11:13:05;;;;;;;19.02;7.75;;;;;;;;;;5037596;23;20065;-83
2021/08/19 11:19:01;;;;;;;20.27;7.38;;;;;;;;;;5046733;23;20187;-82
2021/08/19 11:21:26;;;;;;;24.67;8.73;;;;;;;;;;5022921;28;20102;-82
2021/08/19 11:24:01;;;;;;;15.57;7.85;;;;;;;;;;5018800;23;20467;-82
2021/08/19 11:40:35;;;;;;;14.88;7.63;;;;;;;;;;5038487;23;20061;-81
2021/08/19 11:43:17;;;;;;;14.13;7.25;;;;;;;;;;5030981;28;20045;-80
2021/08/19 11:45:43;;;;;;;10.65;6.93;;;;;;;;;;5032138;28;20033;-80
2021/08/19 11:48:11;;;;;;;13.38;7.47;;;;;;;;;;5031386;28;20043;-80
2021/08/19 11:50:37;;;;;;;20.60;8.00;;;;;;;;;;5031642;28;20029;-79
2021/08/19 11:53:02;;;;;;;19.35;8.05;;;;;;;;;;5033119;28;20029;-80
2021/08/19 11:55:29;;;;;;;21.30;8.07;;;;;;;;;;5032123;28;20508;-79
2021/08/19 11:58:13;;;;;;;12.70;7.22;;;;;;;;;;5031815;28;20032;-80
2021/08/19 12:00:54;;;;;;;13.95;7.97;;;;;;;;;;5012409;28;20030;-79
2021/08/19 12:03:19;;;;;;;15.57;7.70;;;;;;;;;;5021854;28;20628;-81
2021/08/19 12:05:45;;;;;;;15.15;7.72;;;;;;;;;;5029833;28;20129;-80
2021/08/19 12:08:25;;;;;;;13.85;7.57;;;;;;;;;;5030970;28;20044;-80
2021/08/19 12:10:50;;;;;;;21.27;9.20;;;;;;;;;;5025319;28;20057;-80
2021/08/19 12:13:16;;;;;;;23.77;11.63;;;;;;;;;;5033868;28;20333;-80
2021/08/19 12:15:42;;;;;;;14.50;8.65;;;;;;;;;;5038325;28;20468;-79
2021/08/19 12:18:09;;;;;;;20.50;8.15;;;;;;;;;;5033566;28;20083;-78
2021/08/19 12:20:36;;;;;;;20.05;8.82;;;;;;;;;;5035375;28;20037;-80
2021/08/19 12:23:22;;;;;;;12.95;8.82;;;;;;;;;;5031982;28;20033;-80
2021/08/19 12:25:48;;;;;;;14.48;7.75;;;;;;;;;;5028497;28;20032;-80
2021/08/19 12:28:16;;;;;;;18.95;8.40;;;;;;;;;;5032656;28;20041;-79
2021/08/19 12:31:03;;;;;;;22.55;9.05;;;;;;;;;;5022929;28;20025;-80
2021/08/19 12:33:35;;;;;;;19.90;8.77;;;;;;;;;;5032039;28;20033;-80
2021/08/19 12:36:10;;;;;;;27.52;8.93;;;;;;;;;;5030184;28;20503;-80
2021/08/19 12:38:36;;;;;;;26.17;8.70;;;;;;;;;;5030336;28;20120;-80
2021/08/19 12:41:11;;;;;;;20.13;8.75;;;;;;;;;;5030872;28;20160;-81
2021/08/19 12:43:36;;;;;;;25.60;8.98;;;;;;;;;;5032254;28;20025;-81
2021/08/19 12:46:08;;;;;;;26.30;9.20;;;;;;;;;;5030926;28;20534;-80
2021/08/19 12:48:35;;;;;;;63.63;13.95;;;;;;;;;;5012929;28;20391;-80
2021/08/19 12:51:19;;;;;;;20.83;9.70;;;;;;;;;;5031494;28;20025;-80
2021/08/19 12:54:02;;;;;;;27.67;9.70;;;;;;;;;;5044099;28;20143;-80
2021/08/19 12:56:27;;;;;;;18.88;9.25;;;;;;;;;;5051527;28;20029;-78
2021/08/19 12:58:53;;;;;;;20.58;8.23;;;;;;;;;;5051694;28;20033;-80
2021/08/19 13:01:18;;;;;;;14.00;8.00;;;;;;;;;;5032119;28;20068;-79
2021/08/19 13:03:44;;;;;;;21.15;8.57;;;;;;;;;;5037392;28;20033;-79
2021/08/19 13:06:09;;;;;;;21.42;8.98;;;;;;;;;;5018773;28;20169;-81
2021/08/19 13:08:35;;;;;;;20.65;8.15;;;;;;;;;;5035182;28;20033;-80
2021/08/19 13:11:00;;;;;;;19.85;8.30;;;;;;;;;;5043264;28;20398;-80
2021/08/19 13:13:26;;;;;;;23.83;9.65;;;;;;;;;;5031847;28;20119;-80
2021/08/19 13:15:51;;;;;;;25.23;9.45;;;;;;;;;;5032078;28;20029;-79
2021/08/19 13:18:17;;;;;;;21.27;9.50;;;;;;;;;;5031074;28;20524;-80
2021/08/19 13:20:43;;;;;;;22.77;9.23;;;;;;;;;;5031395;28;20042;-79
2021/08/19 13:23:08;;;;;;;15.32;8.07;;;;;;;;;;5030974;28;20057;-79
2021/08/19 13:25:34;;;;;;;19.30;8.40;;;;;;;;;;5038083;28;20032;-80
2021/08/19 13:27:59;;;;;;;13.52;8.13;;;;;;;;;;5051398;28;20045;-79
2021/08/19 13:30:26;;;;;;;20.17;8.65;;;;;;;;;;5051450;28;20029;-80
2021/08/19 13:32:51;;;;;;;25.75;9.75;;;;;;;;;;5037026;28;20029;-80
2021/08/19 13:35:17;;;;;;;16.70;8.30;;;;;;;;;;5030644;28;20064;-80
2021/08/19 13:37:43;;;;;;;30.15;10.38;;;;;;;;;;5032299;28;20032;-80
2021/08/19 13:40:08;;;;;;;28.08;9.57;;;;;;;;;;5034526;28;20053;-80
2021/08/19 13:42:34;;;;;;;24.65;9.43;;;;;;;;;;5010204;28;20099;-80
2021/08/19 13:44:59;;;;;;;32.97;9.52;;;;;;;;;;5030903;28;20108;-80
2021/08/19 13:47:25;;;;;;;37.22;10.82;;;;;;;;;;5033989;28;20037;-79
2021/08/19 13:49:50;;;;;;;21.55;8.60;;;;;;;;;;5034736;28;20040;-80
2021/08/19 13:52:16;;;;;;;25.80;10.45;;;;;;;;;;5034465;28;20112;-80
2021/08/19 13:54:41;;;;;;;27.48;9.18;;;;;;;;;;5034621;28;20040;-80
2021/08/19 13:57:07;;;;;;;27.83;9.82;;;;;;;;;;5016083;28;20025;-79
2021/08/19 13:59:35;;;;;;;20.63;7.78;;;;;;;;;;5034202;28;20507;-80
2021/08/19 14:02:02;;;;;;;19.08;8.18;;;;;;;;;;5016575;28;20074;-80
2021/08/19 14:04:27;;;;;;;32.75;8.65;;;;;;;;;;5033633;28;20111;-80
2021/08/19 14:06:53;;;;;;;29.60;8.82;;;;;;;;;;5034018;28;20029;-80
2021/08/19 14:09:18;;;;;;;15.45;7.55;;;;;;;;;;5033498;28;20392;-79
2021/08/19 14:11:44;;;;;;;16.75;8.20;;;;;;;;;;5022427;28;20036;-82
2021/08/19 14:14:10;;;;;;;25.55;8.27;;;;;;;;;;5034281;28;20029;-81
2021/08/19 14:16:36;;;;;;;24.33;9.00;;;;;;;;;;5034671;28;20069;-80
2021/08/19 14:19:02;;;;;;;17.02;8.32;;;;;;;;;;5013213;28;20021;-79
2021/08/19 14:21:27;;;;;;;20.75;8.32;;;;;;;;;;5013529;28;20123;-81
2021/08/19 14:23:53;;;;;;;17.83;9.20;;;;;;;;;;5032165;28;20176;-81
2021/08/19 14:26:18;;;;;;;31.40;9.70;;;;;;;;;;5033336;28;20165;-80
2021/08/19 14:28:44;;;;;;;28.10;9.88;;;;;;;;;;5033512;28;20056;-79
2021/08/19 14:31:09;;;;;;;24.52;9.52;;;;;;;;;;5033763;28;20072;-78
2021/08/19 14:33:35;;;;;;;19.42;9.10;;;;;;;;;;5034247;28;20025;-80
2021/08/19 14:36:02;;;;;;;21.48;9.90;;;;;;;;;;5032975;28;20037;-80
2021/08/19 14:38:27;;;;;;;18.42;8.70;;;;;;;;;;5027954;28;20412;-80
2021/08/19 14:40:53;;;;;;;25.67;9.95;;;;;;;;;;5030304;28;20136;-79
2021/08/19 14:43:19;;;;;;;36.45;11.05;;;;;;;;;;5033412;28;20411;-80
2021/08/19 14:45:45;;;;;;;21.35;8.93;;;;;;;;;;5014821;28;20036;-79
2021/08/19 14:48:13;;;;;;;31.08;9.30;;;;;;;;;;5032722;28;20427;-81
2021/08/19 14:50:38;;;;;;;25.50;9.35;;;;;;;;;;5033228;28;20037;-81
2021/08/19 14:53:04;;;;;;;35.92;10.02;;;;;;;;;;5033421;28;20584;-80
2021/08/19 14:55:31;;;;;;;29.80;9.82;;;;;;;;;;5033304;28;20496;-79
2021/08/19 14:57:56;;;;;;;20.75;8.43;;;;;;;;;;5032964;28;20061;-80